ROMMA est une association bénévole à but non lucratif. Votre soutien est indispensable : ADHERER à ROMMA ou FAIRE un DON

Granges-lès-Beaumont - (26, Drôme)

Drôme des Collines (155 m)   Longitude: 04°58'E   Latitude: 45°03'N Station partenaire n°123
 

Détail journalier du     <<     >>

Température Precipitation Humidité Pression Vent Dir Rafale Dir. rafale Ensol.
Heure (°C) (mm) (%) (hPa) (km/h) (km/h) (min)
01:00 3.908210322NE11NNE0
02:00 3.208410311NE5NE0
03:00 1.308510312NE6NE0
04:00 1.2087103100---0
05:00 0.9088103100---0
06:00 0.1088103100---0
07:00 0.0088103100---0
08:00 -0.2089103200---0
09:00 3.908710323NE8NE40
10:00 6.907910322ENE6ENE20
11:00 10.106810323ENE10E10
12:00 13.305810322ESE8ESE60
13:00 15.105210314SE11SSO60
14:00 17.504410304E15E60
15:00 18.304610296ENE13E60
16:00 19.704010283N8ENE60
17:00 18.204810287NNO16ONO60
18:00 16.205110289NO18NNO50
19:00 13.805510289NNO18NNE0
20:00 12.1060102812NNO19N0
21:00 11.3062102813NNO23NNO0
22:00 10.106710289NNO15NO0
23:00 9.706910288NNO16NNO0
minuit 8.807210285NNO11NO0

Graphique du 26-02-2019

 

Serveur OMMA